createdAt,value
2022-11-02T00:01:57.496Z,0.80
2022-11-02T00:04:25.861Z,0.77
2022-11-02T00:06:54.116Z,0.60
2022-11-02T00:09:22.377Z,0.60
2022-11-02T00:11:50.686Z,0.70
2022-11-02T00:14:18.966Z,0.57
2022-11-02T00:16:47.389Z,0.50
2022-11-02T00:19:17.016Z,0.70
2022-11-02T00:21:45.290Z,0.77
2022-11-02T00:24:13.553Z,0.53
2022-11-02T00:26:41.887Z,1.03
2022-11-02T00:29:10.116Z,0.50
2022-11-02T00:31:38.396Z,0.50
2022-11-02T00:34:06.648Z,0.50
2022-11-02T00:36:36.842Z,0.53
2022-11-02T00:39:05.115Z,0.67
2022-11-02T00:41:33.397Z,0.57
2022-11-02T00:44:01.760Z,0.50
2022-11-02T00:46:31.221Z,0.53
2022-11-02T00:48:59.556Z,0.70
2022-11-02T00:51:27.796Z,0.60
2022-11-02T00:53:57.438Z,0.60
2022-11-02T00:56:25.742Z,0.50
2022-11-02T00:58:54.360Z,0.80
2022-11-02T01:01:22.696Z,0.50
2022-11-02T01:03:51.063Z,0.87
2022-11-02T01:06:19.477Z,0.70
2022-11-02T01:08:47.776Z,0.73
2022-11-02T01:11:18.579Z,0.40
2022-11-02T01:13:46.874Z,0.40
2022-11-02T01:16:15.220Z,0.43
2022-11-02T01:18:43.807Z,0.63
2022-11-02T01:21:12.154Z,0.80
2022-11-02T01:23:40.629Z,0.83
2022-11-02T01:26:09.406Z,0.60
2022-11-02T01:28:39.319Z,0.60
2022-11-02T01:31:07.862Z,0.70
2022-11-02T01:33:36.130Z,0.57
2022-11-02T01:36:04.544Z,0.50
2022-11-02T01:38:33.046Z,1.00
2022-11-02T01:41:01.358Z,1.23
2022-11-02T01:43:29.904Z,0.83
2022-11-02T01:46:00.365Z,0.93
2022-11-02T01:48:29.565Z,1.47
2022-11-02T01:50:57.939Z,1.07
2022-11-02T01:53:26.202Z,1.30
2022-11-02T01:55:54.455Z,1.00
2022-11-02T01:58:22.708Z,1.10
2022-11-02T02:00:51.011Z,1.43
2022-11-02T02:03:21.354Z,0.70
2022-11-02T02:05:50.291Z,1.03
2022-11-02T02:08:19.458Z,1.43
2022-11-02T02:10:47.719Z,1.20
2022-11-02T02:13:15.938Z,1.03
2022-11-02T02:15:45.517Z,0.80
2022-11-02T02:18:14.286Z,0.73
2022-11-02T02:20:52.431Z,0.90
2022-11-02T02:23:47.558Z,0.93
2022-11-02T02:26:26.856Z,0.70
2022-11-02T02:28:56.733Z,1.30
2022-11-02T02:31:26.065Z,0.70
2022-11-02T02:33:55.357Z,1.20
2022-11-02T02:36:24.765Z,0.83
2022-11-02T02:38:57.228Z,1.10
2022-11-02T02:41:26.138Z,1.10
2022-11-02T02:43:55.041Z,0.90
2022-11-02T02:46:25.778Z,0.70
2022-11-02T02:48:54.144Z,0.90
2022-11-02T02:51:23.341Z,1.23
2022-11-02T02:53:52.316Z,1.00
2022-11-02T02:56:21.337Z,0.70
2022-11-02T02:58:50.704Z,0.93
2022-11-02T03:01:19.403Z,0.67
2022-11-02T03:03:49.118Z,0.60
2022-11-02T03:06:18.627Z,0.40
2022-11-02T03:08:48.659Z,1.23
2022-11-02T03:11:17.532Z,1.03
2022-11-02T03:13:49.212Z,0.90
2022-11-02T03:16:20.133Z,0.90
2022-11-02T03:18:50.504Z,1.13
2022-11-02T03:21:22.004Z,0.67
2022-11-02T03:23:51.593Z,0.57
2022-11-02T03:26:20.290Z,0.80
2022-11-02T03:28:52.351Z,1.23
2022-11-02T03:31:21.842Z,1.53
2022-11-02T03:33:53.109Z,0.80
2022-11-02T03:36:21.516Z,0.97
2022-11-02T03:38:50.908Z,1.03
2022-11-02T03:41:19.296Z,1.33
2022-11-02T03:43:47.558Z,1.00
2022-11-02T03:46:15.852Z,0.93
2022-11-02T03:48:44.688Z,0.73
2022-11-02T03:51:15.212Z,0.80
2022-11-02T03:53:44.133Z,0.80
2022-11-02T03:56:14.973Z,0.80
2022-11-02T03:58:43.183Z,0.83
2022-11-02T04:01:11.558Z,0.73
2022-11-02T04:03:40.291Z,1.00
2022-11-02T04:06:08.697Z,0.73
2022-11-02T04:08:39.597Z,0.90
2022-11-02T04:11:30.908Z,1.03
2022-11-02T04:14:16.551Z,0.80
2022-11-02T04:16:44.936Z,0.70
2022-11-02T04:19:27.625Z,1.10
2022-11-02T04:22:13.346Z,0.97
2022-11-02T04:25:00.542Z,0.77
2022-11-02T04:27:28.786Z,1.27
2022-11-02T04:29:57.021Z,0.70
2022-11-02T04:32:42.837Z,1.07
2022-11-02T04:35:11.373Z,0.77
2022-11-02T04:37:57.626Z,1.03
2022-11-02T04:40:27.272Z,0.80
2022-11-02T04:42:55.551Z,0.60
2022-11-02T04:45:23.809Z,0.87
2022-11-02T04:47:52.121Z,0.80
2022-11-02T04:50:20.442Z,0.73
2022-11-02T04:52:48.694Z,0.70
2022-11-02T04:55:17.025Z,1.10
2022-11-02T04:57:47.813Z,0.67
2022-11-02T05:00:16.727Z,0.90
2022-11-02T05:02:45.084Z,0.77
2022-11-02T05:05:13.355Z,0.80
2022-11-02T05:07:41.657Z,0.83
2022-11-02T05:10:10.073Z,0.97
2022-11-02T05:12:38.390Z,0.73
2022-11-02T05:15:08.526Z,0.50
2022-11-02T05:17:36.724Z,0.60
2022-11-02T05:20:05.091Z,0.70
2022-11-02T05:22:33.321Z,0.43
2022-11-02T05:25:01.568Z,1.13
2022-11-02T05:27:29.839Z,0.50
2022-11-02T05:29:58.077Z,0.90
2022-11-02T05:32:27.666Z,0.73
2022-11-02T05:34:55.917Z,0.47
2022-11-02T05:37:24.140Z,0.67
2022-11-02T05:39:52.422Z,0.30
2022-11-02T05:42:20.718Z,0.50
2022-11-02T05:44:48.949Z,1.07
2022-11-02T05:47:17.281Z,0.67
2022-11-02T05:49:46.957Z,0.40
2022-11-02T05:52:15.422Z,0.40
2022-11-02T05:54:43.703Z,0.50
2022-11-02T05:57:11.931Z,0.50
2022-11-02T05:59:41.769Z,0.43
2022-11-02T06:02:12.558Z,0.60
2022-11-02T06:04:40.851Z,0.73
2022-11-02T06:07:10.451Z,0.40
2022-11-02T06:09:38.719Z,0.47
2022-11-02T06:12:07.246Z,0.60
2022-11-02T06:14:35.501Z,0.63
2022-11-02T06:17:03.955Z,0.57
2022-11-02T06:19:32.194Z,0.87
2022-11-02T06:22:00.459Z,0.40
2022-11-02T06:24:30.138Z,0.50
2022-11-02T06:26:58.418Z,0.70
2022-11-02T06:29:26.692Z,0.47
2022-11-02T06:31:55.106Z,0.30
2022-11-02T06:34:23.354Z,0.50
2022-11-02T06:36:51.606Z,0.50
2022-11-02T06:39:19.881Z,0.63
2022-11-02T06:41:49.477Z,0.60
2022-11-02T06:44:17.747Z,0.43
2022-11-02T06:46:46.089Z,0.70
2022-11-02T06:49:14.613Z,0.67
2022-11-02T06:51:42.843Z,0.70
2022-11-02T06:54:11.191Z,0.50
2022-11-02T06:56:39.487Z,0.50
2022-11-02T06:59:09.084Z,0.57
2022-11-02T07:01:37.540Z,0.60
2022-11-02T07:04:06.133Z,0.60
2022-11-02T07:06:34.556Z,0.70
2022-11-02T07:09:02.946Z,0.40
2022-11-02T07:11:31.202Z,0.43
2022-11-02T07:13:59.452Z,0.47
2022-11-02T07:16:29.197Z,0.43
2022-11-02T07:18:57.764Z,1.43
2022-11-02T07:21:26.006Z,2.43
2022-11-02T07:23:54.401Z,1.77
2022-11-02T07:26:23.113Z,1.90
2022-11-02T07:28:56.560Z,2.63
2022-11-02T07:31:26.698Z,2.00
2022-11-02T07:33:56.373Z,1.60
2022-11-02T07:36:24.682Z,1.57
2022-11-02T07:38:53.072Z,2.03
2022-11-02T07:41:21.351Z,1.50
2022-11-02T07:43:49.641Z,1.13
2022-11-02T07:46:18.924Z,1.10
2022-11-02T07:48:48.198Z,1.10
2022-11-02T07:51:18.321Z,0.90
2022-11-02T07:53:46.655Z,1.03
2022-11-02T07:56:14.933Z,1.03
2022-11-02T07:58:43.202Z,1.20
2022-11-02T08:01:11.671Z,1.23
2022-11-02T08:03:39.989Z,0.57
2022-11-02T08:06:08.486Z,0.60
2022-11-02T08:08:38.298Z,1.23
2022-11-02T08:11:07.429Z,0.60
2022-11-02T08:13:35.805Z,0.80
2022-11-02T08:16:04.231Z,0.57
2022-11-02T08:18:32.813Z,0.90
2022-11-02T08:21:01.291Z,0.70
2022-11-02T08:23:29.694Z,0.70
2022-11-02T08:26:00.035Z,0.47
2022-11-02T08:28:28.701Z,0.77
2022-11-02T08:30:57.115Z,0.43
2022-11-02T08:33:25.370Z,0.40
2022-11-02T08:35:53.716Z,0.53
2022-11-02T08:38:23.078Z,0.47
2022-11-02T08:40:51.352Z,0.70
2022-11-02T08:43:21.005Z,0.93
2022-11-02T08:48:38.870Z,0.70
2022-11-02T08:51:08.959Z,0.70
2022-11-02T08:53:37.230Z,0.43
2022-11-02T08:56:05.644Z,0.70
2022-11-02T08:58:35.294Z,0.50
2022-11-02T09:01:03.499Z,0.60
2022-11-02T09:03:32.149Z,0.53
2022-11-02T09:06:00.766Z,0.37
2022-11-02T09:08:29.193Z,0.40
2022-11-02T09:10:59.524Z,0.70
2022-11-02T09:13:28.062Z,0.80
2022-11-02T09:15:58.386Z,0.40
2022-11-02T09:18:26.745Z,0.80
2022-11-02T09:20:55.166Z,0.47
2022-11-02T09:23:23.511Z,0.30
2022-11-02T09:25:51.820Z,0.70
2022-11-02T09:28:20.293Z,0.70
2022-11-02T09:30:48.637Z,0.30
2022-11-02T09:33:18.661Z,0.33
2022-11-02T09:35:47.906Z,0.40
2022-11-02T09:38:16.198Z,0.73
2022-11-02T09:40:45.346Z,0.50
2022-11-02T09:43:16.422Z,0.90
2022-11-02T09:45:46.952Z,0.57
2022-11-02T09:48:20.812Z,0.37
2022-11-02T09:50:56.465Z,0.60
2022-11-02T09:53:29.425Z,0.20
2022-11-02T09:55:58.591Z,0.40
2022-11-02T09:58:30.661Z,0.50
2022-11-02T10:01:01.804Z,0.43
2022-11-02T10:03:33.842Z,0.80
2022-11-02T10:06:04.191Z,1.10
2022-11-02T10:08:35.392Z,0.60
2022-11-02T10:11:08.523Z,0.60
2022-11-02T10:13:39.072Z,0.70
2022-11-02T10:16:07.926Z,0.20
2022-11-02T10:18:36.224Z,0.40
2022-11-02T10:21:07.356Z,0.70
2022-11-02T10:23:36.617Z,0.27
2022-11-02T10:26:04.979Z,0.70
2022-11-02T10:28:33.920Z,0.70
2022-11-02T10:31:02.349Z,0.30
2022-11-02T10:33:30.869Z,0.50
2022-11-02T10:36:18.019Z,0.67
2022-11-02T10:38:50.726Z,1.53
2022-11-02T10:41:22.788Z,2.97
2022-11-02T10:43:57.152Z,3.53
2022-11-02T10:46:27.711Z,1.40
2022-11-02T10:48:57.697Z,1.97
2022-11-02T10:51:27.455Z,2.87
2022-11-02T10:53:55.837Z,2.23
2022-11-02T10:56:24.434Z,2.77
2022-11-02T10:58:54.698Z,1.70
2022-11-02T11:01:23.091Z,2.07
2022-11-02T11:04:11.259Z,1.97
2022-11-02T11:06:41.094Z,1.37
2022-11-02T11:09:09.744Z,1.40
2022-11-02T11:11:38.499Z,1.60
2022-11-02T11:16:55.982Z,0.80
2022-11-02T11:19:41.399Z,1.23
2022-11-02T11:22:24.969Z,1.27
2022-11-02T11:24:54.570Z,1.67
2022-11-02T11:27:22.995Z,1.30
2022-11-02T11:29:52.180Z,0.80
2022-11-02T11:32:24.552Z,0.90
2022-11-02T11:34:56.585Z,0.67
2022-11-02T11:37:24.895Z,1.43
2022-11-02T11:39:55.227Z,1.10
2022-11-02T11:42:24.121Z,0.90
2022-11-02T11:44:54.749Z,1.20
2022-11-02T11:47:26.124Z,0.63
2022-11-02T11:50:09.261Z,1.10
2022-11-02T11:52:42.512Z,0.90
2022-11-02T11:55:22.819Z,1.00
2022-11-02T11:58:06.814Z,0.50
2022-11-02T12:00:35.624Z,0.93
2022-11-02T12:03:06.132Z,0.87
2022-11-02T12:05:36.619Z,0.60
2022-11-02T12:08:09.526Z,0.90
2022-11-02T12:10:44.708Z,0.63
2022-11-02T12:13:16.861Z,0.70
2022-11-02T12:15:55.648Z,0.57
2022-11-02T12:18:28.218Z,0.70
2022-11-02T12:20:58.755Z,0.57
2022-11-02T12:23:30.309Z,0.93
2022-11-02T12:26:05.777Z,0.50
2022-11-02T12:28:36.405Z,0.77
2022-11-02T12:31:07.038Z,0.53
2022-11-02T12:33:37.530Z,0.73
2022-11-02T12:36:07.463Z,0.63
2022-11-02T12:38:39.785Z,0.70
2022-11-02T12:41:11.183Z,0.83
2022-11-02T12:43:40.902Z,0.87
2022-11-02T12:46:22.258Z,0.60
2022-11-02T12:48:52.168Z,1.00
2022-11-02T12:51:20.856Z,0.73
2022-11-02T12:53:50.327Z,0.50
2022-11-02T12:56:21.656Z,0.50
2022-11-02T12:58:50.056Z,0.73
2022-11-02T13:01:20.860Z,0.80
2022-11-02T13:03:50.571Z,1.10
2022-11-02T13:06:19.513Z,0.70
2022-11-02T13:08:48.870Z,0.40
2022-11-02T13:11:17.687Z,0.60
2022-11-02T13:13:47.795Z,0.40
2022-11-02T13:16:16.364Z,0.73
2022-11-02T13:18:45.885Z,0.50
2022-11-02T13:21:14.192Z,0.50
2022-11-02T13:23:45.001Z,0.73
2022-11-02T13:26:14.175Z,0.53
2022-11-02T13:28:43.343Z,0.40
2022-11-02T13:31:13.932Z,0.53
2022-11-02T13:33:43.290Z,1.00
2022-11-02T13:36:11.538Z,0.40
2022-11-02T13:38:41.083Z,1.17
2022-11-02T13:41:13.760Z,0.87
2022-11-02T13:43:50.859Z,1.10
2022-11-02T13:46:33.402Z,1.10
2022-11-02T13:49:02.515Z,0.50
2022-11-02T13:51:32.805Z,0.40
2022-11-02T13:54:02.333Z,0.63
2022-11-02T13:56:30.894Z,0.67
2022-11-02T13:59:00.704Z,0.97
2022-11-02T14:01:29.338Z,1.37
2022-11-02T14:04:02.235Z,0.93
2022-11-02T14:06:30.963Z,0.97
2022-11-02T14:08:59.845Z,0.40
2022-11-02T14:11:29.271Z,0.60
2022-11-02T14:14:18.334Z,0.77
2022-11-02T14:16:47.453Z,1.40
2022-11-02T14:19:27.033Z,0.47
2022-11-02T14:22:06.027Z,0.77
2022-11-02T14:24:54.124Z,0.67
2022-11-02T14:27:31.551Z,0.40
2022-11-02T14:30:00.092Z,1.13
2022-11-02T14:32:44.301Z,0.80
2022-11-02T14:35:18.592Z,0.60
2022-11-02T14:38:01.851Z,1.03
2022-11-02T14:40:31.226Z,0.70
2022-11-02T14:43:07.746Z,0.87
2022-11-02T14:45:48.590Z,1.00
2022-11-02T14:48:17.328Z,0.70
2022-11-02T14:50:46.956Z,1.13
2022-11-02T14:53:20.655Z,0.30
2022-11-02T14:55:53.459Z,0.97
2022-11-02T14:58:22.147Z,0.87
2022-11-02T15:00:57.656Z,0.57
2022-11-02T15:03:31.447Z,1.07
2022-11-02T15:06:03.111Z,0.57
2022-11-02T15:08:32.609Z,0.80
2022-11-02T15:11:00.877Z,0.73
2022-11-02T15:13:36.314Z,0.93
2022-11-02T15:16:17.428Z,0.60
2022-11-02T15:18:45.711Z,0.57
2022-11-02T15:21:27.892Z,0.90
2022-11-02T15:24:16.771Z,0.70
2022-11-02T15:26:49.863Z,0.70
2022-11-02T15:29:22.904Z,0.60
2022-11-02T15:31:53.151Z,0.70
2022-11-02T15:34:21.694Z,0.50
2022-11-02T15:36:51.351Z,0.83
2022-11-02T15:39:19.878Z,0.47
2022-11-02T15:41:50.384Z,1.13
2022-11-02T15:44:22.121Z,0.73
2022-11-02T15:46:53.732Z,0.80
2022-11-02T15:49:32.193Z,0.53
2022-11-02T15:52:03.565Z,0.97
2022-11-02T15:54:43.416Z,0.50
2022-11-02T15:57:17.199Z,0.37
2022-11-02T15:59:52.216Z,0.60
2022-11-02T16:02:24.239Z,0.87
2022-11-02T16:04:53.102Z,0.60
2022-11-02T16:07:24.022Z,0.90
2022-11-02T16:09:54.366Z,0.90
2022-11-02T16:12:22.997Z,1.27
2022-11-02T16:14:55.881Z,0.90
2022-11-02T16:17:24.692Z,1.43
2022-11-02T16:19:52.972Z,1.03
2022-11-02T16:22:24.831Z,0.70
2022-11-02T16:24:53.187Z,0.90
2022-11-02T16:27:21.614Z,0.80
2022-11-02T16:29:50.482Z,1.27
2022-11-02T16:32:18.785Z,1.10
2022-11-02T16:34:47.041Z,1.23
2022-11-02T16:37:17.206Z,0.90
2022-11-02T16:39:47.727Z,0.80
2022-11-02T16:42:17.365Z,1.27
2022-11-02T16:47:19.404Z,1.23
2022-11-02T16:50:08.563Z,1.13
2022-11-02T16:52:37.600Z,1.30
2022-11-02T16:55:30.501Z,1.50
2022-11-02T16:57:58.921Z,1.27
2022-11-02T17:00:27.236Z,1.00
2022-11-02T17:02:55.624Z,1.17
2022-11-02T17:05:24.950Z,1.10
2022-11-02T17:07:56.624Z,1.27
2022-11-02T17:10:27.422Z,1.70
2022-11-02T17:12:55.687Z,1.53
2022-11-02T17:15:24.390Z,1.20
2022-11-02T17:17:52.868Z,1.60
2022-11-02T17:20:22.731Z,1.20
2022-11-02T17:22:52.027Z,1.10
2022-11-02T17:25:21.680Z,1.47
2022-11-02T17:27:51.378Z,1.10
2022-11-02T17:30:38.549Z,1.67
2022-11-02T17:33:09.568Z,1.30
2022-11-02T17:35:37.859Z,0.77
2022-11-02T17:38:06.462Z,1.30
2022-11-02T17:40:34.982Z,1.23
2022-11-02T17:43:03.806Z,0.90
2022-11-02T17:45:33.373Z,1.03
2022-11-02T17:48:02.148Z,1.27
2022-11-02T17:50:31.141Z,1.47
2022-11-02T17:52:59.706Z,1.47
2022-11-02T17:55:28.723Z,1.33
2022-11-02T17:57:57.005Z,0.70
2022-11-02T18:00:27.337Z,1.30
2022-11-02T18:02:56.052Z,1.27
2022-11-02T18:05:24.685Z,1.23
2022-11-02T18:07:53.140Z,1.00
2022-11-02T18:10:21.565Z,1.43
2022-11-02T18:12:51.987Z,1.20
2022-11-02T18:15:20.830Z,1.13
2022-11-02T18:17:50.498Z,1.00
2022-11-02T18:20:19.255Z,0.97
2022-11-02T18:22:47.699Z,1.53
2022-11-02T18:25:16.497Z,1.07
2022-11-02T18:27:44.900Z,0.93
2022-11-02T18:30:13.886Z,1.50
2022-11-02T18:32:42.392Z,1.23
2022-11-02T18:35:12.580Z,1.87
2022-11-02T18:37:41.074Z,1.53
2022-11-02T18:40:09.803Z,1.20
2022-11-02T18:42:38.096Z,1.23
2022-11-02T18:45:07.020Z,0.97
2022-11-02T18:47:35.321Z,0.93
2022-11-02T18:50:04.093Z,1.20
2022-11-02T18:52:33.826Z,1.33
2022-11-02T18:55:03.466Z,1.13
2022-11-02T18:57:31.914Z,1.00
2022-11-02T19:00:02.464Z,1.13
2022-11-02T19:02:30.821Z,1.23
2022-11-02T19:04:59.168Z,1.03
2022-11-02T19:07:45.316Z,1.17
2022-11-02T19:10:14.968Z,1.13
2022-11-02T19:12:43.253Z,1.50
2022-11-02T19:15:11.888Z,1.00
2022-11-02T19:17:40.148Z,1.10
2022-11-02T19:20:08.998Z,1.43
2022-11-02T19:22:37.463Z,1.27
2022-11-02T19:25:06.202Z,1.40
2022-11-02T19:27:35.837Z,1.30
2022-11-02T19:30:04.273Z,1.63
2022-11-02T19:32:32.532Z,1.97
2022-11-02T19:35:00.797Z,1.77
2022-11-02T19:37:33.479Z,1.40
2022-11-02T19:40:02.864Z,1.23
2022-11-02T19:42:31.303Z,1.33
2022-11-02T19:45:00.947Z,1.20
2022-11-02T19:47:29.260Z,1.33
2022-11-02T19:49:57.791Z,0.90
2022-11-02T19:52:26.043Z,1.10
2022-11-02T19:54:54.348Z,1.20
2022-11-02T19:57:22.802Z,0.93
2022-11-02T19:59:51.077Z,1.57
2022-11-02T20:02:20.801Z,0.90
2022-11-02T20:04:49.642Z,1.13
2022-11-02T20:07:17.948Z,1.00
2022-11-02T20:09:46.166Z,1.00
2022-11-02T20:12:14.656Z,1.20
2022-11-02T20:14:42.956Z,1.50
2022-11-02T20:17:30.146Z,1.00
2022-11-02T20:20:00.894Z,1.23
2022-11-02T20:22:29.171Z,1.90
2022-11-02T20:24:57.543Z,2.03
2022-11-02T20:27:26.016Z,1.57
2022-11-02T20:29:54.332Z,1.07
2022-11-02T20:32:23.619Z,1.30
2022-11-02T20:34:52.013Z,1.30
2022-11-02T20:37:21.687Z,1.10
2022-11-02T20:39:49.986Z,1.00
2022-11-02T20:42:18.404Z,1.10
2022-11-02T20:44:49.250Z,1.27
2022-11-02T20:47:17.626Z,1.00
2022-11-02T20:49:50.418Z,1.10
2022-11-02T20:52:21.848Z,1.70
2022-11-02T20:54:51.580Z,1.13
2022-11-02T20:57:22.001Z,1.77
2022-11-02T20:59:50.276Z,1.60
2022-11-02T21:02:18.771Z,1.10
2022-11-02T21:04:47.063Z,1.40
2022-11-02T21:07:15.362Z,1.60
2022-11-02T21:09:43.728Z,2.10
2022-11-02T21:12:31.297Z,1.77
2022-11-02T21:14:59.764Z,1.70
2022-11-02T21:17:28.077Z,2.13
2022-11-02T21:19:58.303Z,1.30
2022-11-02T21:22:43.441Z,1.03
2022-11-02T21:25:12.496Z,1.93
2022-11-02T21:27:42.299Z,1.43
2022-11-02T21:30:11.205Z,1.30
2022-11-02T21:32:39.504Z,2.23
2022-11-02T21:35:08.150Z,1.33
2022-11-02T21:37:36.541Z,1.30
2022-11-02T21:40:04.941Z,1.40
2022-11-02T21:42:33.254Z,1.50
2022-11-02T21:45:03.035Z,1.43
2022-11-02T21:47:34.267Z,1.47
2022-11-02T21:50:02.845Z,1.73
2022-11-02T21:52:31.114Z,1.83
2022-11-02T21:54:59.363Z,1.53
2022-11-02T21:57:27.720Z,1.27
2022-11-02T21:59:55.986Z,1.20
2022-11-02T22:02:24.750Z,1.23
2022-11-02T22:04:53.810Z,1.63
2022-11-02T22:07:22.123Z,1.00
2022-11-02T22:09:50.384Z,1.23
2022-11-02T22:12:36.359Z,1.10
2022-11-02T22:15:04.603Z,1.30
2022-11-02T22:17:49.045Z,1.27
2022-11-02T22:20:18.428Z,1.40
2022-11-02T22:22:46.896Z,1.90
2022-11-02T22:25:15.198Z,1.40
2022-11-02T22:27:43.589Z,1.53
2022-11-02T22:30:12.403Z,1.80
2022-11-02T22:32:42.040Z,1.07
2022-11-02T22:35:10.851Z,1.10
2022-11-02T22:37:56.658Z,1.73
2022-11-02T22:40:24.970Z,1.13
2022-11-02T22:42:55.916Z,1.40
2022-11-02T22:45:24.184Z,1.77
2022-11-02T22:47:53.796Z,0.90
2022-11-02T22:50:23.813Z,0.80
2022-11-02T22:52:56.342Z,1.53
2022-11-02T22:55:24.580Z,1.63
2022-11-02T22:57:59.662Z,1.30
2022-11-02T23:00:28.485Z,1.90
2022-11-02T23:02:58.100Z,0.93
2022-11-02T23:05:26.353Z,1.67
2022-11-02T23:07:54.726Z,2.83
2022-11-02T23:10:40.522Z,0.80
2022-11-02T23:13:08.994Z,1.60
2022-11-02T23:15:37.548Z,1.50
2022-11-02T23:18:07.208Z,1.87
2022-11-02T23:20:34.480Z,1.63
2022-11-02T23:23:22.430Z,1.50
2022-11-02T23:25:55.845Z,1.33
2022-11-02T23:28:41.933Z,1.67
2022-11-02T23:31:27.763Z,1.60
2022-11-02T23:33:57.777Z,1.17
2022-11-02T23:36:25.023Z,1.40
2022-11-02T23:39:10.871Z,1.60
2022-11-02T23:41:39.206Z,1.70
2022-11-02T23:44:14.170Z,1.20
2022-11-02T23:46:42.639Z,1.50
2022-11-02T23:49:12.331Z,1.57
2022-11-02T23:51:58.490Z,1.00
2022-11-02T23:54:44.334Z,1.30
2022-11-02T23:57:14.547Z,1.23
2022-11-02T23:59:42.832Z,1.40
